createdAt,value
2023-04-23T00:01:20.707Z,8.00
2023-04-23T00:03:51.372Z,8.00
2023-04-23T00:06:22.545Z,7.90
2023-04-23T00:08:54.866Z,8.00
2023-04-23T00:11:23.926Z,8.00
2023-04-23T00:13:53.648Z,7.90
2023-04-23T00:16:22.964Z,7.90
2023-04-23T00:18:53.110Z,7.90
2023-04-23T00:21:21.770Z,7.90
2023-04-23T00:23:50.442Z,7.90
2023-04-23T00:26:19.664Z,7.80
2023-04-23T00:28:49.585Z,7.90
2023-04-23T00:31:18.310Z,7.80
2023-04-23T00:33:47.072Z,7.80
2023-04-23T00:36:17.170Z,7.80
2023-04-23T00:38:45.786Z,7.70
2023-04-23T00:41:14.805Z,7.70
2023-04-23T00:43:45.847Z,7.70
2023-04-23T00:46:14.709Z,7.60
2023-04-23T00:48:43.869Z,7.60
2023-04-23T00:51:13.409Z,7.60
2023-04-23T00:53:43.580Z,7.60
2023-04-23T00:56:12.739Z,7.60
2023-04-23T00:58:42.109Z,7.60
2023-04-23T01:01:12.512Z,7.50
2023-04-23T01:03:43.620Z,7.50
2023-04-23T01:06:12.381Z,7.50
2023-04-23T01:08:44.281Z,7.50
2023-04-23T01:11:15.842Z,7.40
2023-04-23T01:13:45.105Z,7.40
2023-04-23T01:16:13.845Z,7.40
2023-04-23T01:18:44.646Z,7.40
2023-04-23T01:21:15.180Z,7.30
2023-04-23T01:23:47.252Z,7.30
2023-04-23T01:26:19.010Z,7.30
2023-04-23T01:28:48.321Z,7.20
2023-04-23T01:31:17.752Z,7.20
2023-04-23T01:33:48.469Z,7.10
2023-04-23T01:36:17.308Z,7.10
2023-04-23T01:38:47.530Z,7.10
2023-04-23T01:41:20.054Z,7.10
2023-04-23T01:43:49.124Z,7.00
2023-04-23T01:46:17.956Z,7.00
2023-04-23T01:48:46.834Z,7.10
2023-04-23T01:51:15.558Z,7.30
2023-04-23T01:53:44.140Z,7.40
2023-04-23T01:56:15.000Z,7.50
2023-04-23T01:58:43.777Z,7.60
2023-04-23T02:01:12.460Z,7.70
2023-04-23T02:03:41.473Z,7.70
2023-04-23T02:06:10.235Z,7.80
2023-04-23T02:08:39.466Z,7.80
2023-04-23T02:11:08.103Z,7.80
2023-04-23T02:13:38.134Z,7.90
2023-04-23T02:16:07.742Z,7.90
2023-04-23T02:18:36.469Z,7.90
2023-04-23T02:21:09.003Z,7.90
2023-04-23T02:23:38.767Z,7.90
2023-04-23T02:26:07.965Z,8.00
2023-04-23T02:28:41.541Z,8.00
2023-04-23T02:31:10.219Z,8.00
2023-04-23T02:33:38.934Z,8.00
2023-04-23T02:36:08.531Z,8.00
2023-04-23T02:38:37.139Z,8.00
2023-04-23T02:41:08.500Z,8.00
2023-04-23T02:43:38.721Z,8.00
2023-04-23T02:46:10.223Z,8.00
2023-04-23T02:48:40.388Z,8.00
2023-04-23T02:51:10.819Z,7.90
2023-04-23T02:53:39.541Z,7.90
2023-04-23T02:56:08.586Z,7.90
2023-04-23T02:58:38.707Z,8.00
2023-04-23T03:01:07.741Z,8.00
2023-04-23T03:03:36.649Z,8.10
2023-04-23T03:06:06.833Z,8.10
2023-04-23T03:08:36.013Z,8.10
2023-04-23T03:11:04.764Z,8.10
2023-04-23T03:13:33.438Z,8.10
2023-04-23T03:16:03.510Z,8.10
2023-04-23T03:18:32.202Z,8.10
2023-04-23T03:21:00.964Z,8.10
2023-04-23T03:23:29.691Z,8.10
2023-04-23T03:25:58.374Z,8.10
2023-04-23T03:28:27.260Z,8.10
2023-04-23T03:30:56.861Z,8.10
2023-04-23T03:33:27.076Z,8.10
2023-04-23T03:35:55.845Z,8.10
2023-04-23T03:38:24.472Z,8.10
2023-04-23T03:40:53.191Z,8.20
2023-04-23T03:43:24.642Z,8.20
2023-04-23T03:45:53.314Z,8.20
2023-04-23T03:48:21.931Z,8.20
2023-04-23T03:50:52.120Z,8.20
2023-04-23T03:53:21.677Z,8.20
2023-04-23T03:55:50.496Z,8.20
2023-04-23T03:58:19.252Z,8.10
2023-04-23T04:00:47.903Z,8.10
2023-04-23T04:03:16.625Z,8.00
2023-04-23T04:05:45.621Z,8.00
2023-04-23T04:08:15.769Z,7.90
2023-04-23T04:10:44.532Z,7.90
2023-04-23T04:13:13.516Z,7.80
2023-04-23T04:15:42.215Z,7.80
2023-04-23T04:18:10.963Z,7.70
2023-04-23T04:20:39.677Z,7.70
2023-04-23T04:23:08.334Z,7.60
2023-04-23T04:25:40.236Z,7.70
2023-04-23T04:28:09.464Z,7.70
2023-04-23T04:30:38.282Z,7.70
2023-04-23T04:33:07.079Z,7.70
2023-04-23T04:35:35.916Z,7.80
2023-04-23T04:38:04.648Z,7.80
2023-04-23T04:40:34.604Z,7.70
2023-04-23T04:43:05.846Z,7.60
2023-04-23T04:45:34.564Z,7.60
2023-04-23T04:48:03.347Z,7.60
2023-04-23T04:50:32.059Z,7.60
2023-04-23T04:53:00.942Z,7.60
2023-04-23T04:55:30.839Z,7.60
2023-04-23T04:57:59.639Z,7.60
2023-04-23T05:00:33.289Z,7.50
2023-04-23T05:03:02.243Z,7.50
2023-04-23T05:05:31.381Z,7.50
2023-04-23T05:08:02.343Z,7.50
2023-04-23T05:10:31.777Z,7.60
2023-04-23T05:13:04.436Z,7.60
2023-04-23T05:15:34.510Z,7.70
2023-04-23T05:18:05.529Z,7.90
2023-04-23T05:20:34.372Z,8.00
2023-04-23T05:23:03.269Z,8.20
2023-04-23T05:25:34.543Z,8.30
2023-04-23T05:28:03.404Z,8.40
2023-04-23T05:30:32.119Z,8.50
2023-04-23T05:33:02.277Z,8.60
2023-04-23T05:35:32.056Z,8.60
2023-04-23T05:38:02.913Z,8.60
2023-04-23T05:40:31.700Z,8.70
2023-04-23T05:43:00.603Z,8.70
2023-04-23T05:45:31.326Z,8.80
2023-04-23T05:48:01.550Z,8.80
2023-04-23T05:50:30.478Z,8.80
2023-04-23T05:52:59.189Z,8.80
2023-04-23T05:55:27.891Z,8.90
2023-04-23T05:57:56.567Z,9.00
2023-04-23T06:00:25.389Z,9.00
2023-04-23T06:02:54.144Z,9.00
2023-04-23T06:05:24.823Z,9.00
2023-04-23T06:07:54.307Z,8.90
2023-04-23T06:10:23.149Z,8.90
2023-04-23T06:12:54.083Z,8.90
2023-04-23T06:15:27.051Z,8.90
2023-04-23T06:17:56.013Z,8.90
2023-04-23T06:20:26.538Z,9.00
2023-04-23T06:22:55.131Z,8.90
2023-04-23T06:25:23.980Z,8.90
2023-04-23T06:27:52.746Z,8.90
2023-04-23T06:30:21.521Z,9.00
2023-04-23T06:32:50.900Z,9.00
2023-04-23T06:35:19.730Z,9.10
2023-04-23T06:37:49.757Z,9.20
2023-04-23T06:40:18.593Z,9.20
2023-04-23T06:42:47.697Z,9.30
2023-04-23T06:45:16.473Z,9.40
2023-04-23T06:47:45.259Z,9.50
2023-04-23T06:50:14.306Z,9.60
2023-04-23T06:52:43.970Z,9.60
2023-04-23T06:55:14.333Z,9.70
2023-04-23T06:57:43.275Z,9.80
2023-04-23T07:00:13.749Z,9.90
2023-04-23T07:02:42.758Z,10.00
2023-04-23T07:05:13.147Z,10.10
2023-04-23T07:07:44.057Z,10.20
2023-04-23T07:10:16.294Z,10.30
2023-04-23T07:12:46.647Z,10.40
2023-04-23T07:15:17.025Z,10.50
2023-04-23T07:17:46.264Z,10.70
2023-04-23T07:20:15.534Z,10.80
2023-04-23T07:22:44.456Z,10.90
2023-04-23T07:25:14.488Z,11.00
2023-04-23T07:27:43.288Z,11.00
2023-04-23T07:30:13.153Z,11.00
2023-04-23T07:32:41.924Z,11.10
2023-04-23T07:35:13.616Z,11.20
2023-04-23T07:37:44.392Z,11.40
2023-04-23T07:40:14.676Z,11.50
2023-04-23T07:42:43.589Z,11.50
2023-04-23T07:45:13.091Z,11.50
2023-04-23T07:47:42.090Z,11.60
2023-04-23T07:50:11.187Z,11.70
2023-04-23T07:52:40.309Z,11.70
2023-04-23T07:55:12.089Z,11.70
2023-04-23T07:57:42.268Z,11.90
2023-04-23T08:00:11.922Z,12.00
2023-04-23T08:02:40.856Z,12.10
2023-04-23T08:05:13.379Z,12.20
2023-04-23T08:07:44.181Z,12.20
2023-04-23T08:10:13.052Z,12.30
2023-04-23T08:12:43.224Z,12.30
2023-04-23T08:15:13.069Z,12.40
2023-04-23T08:17:41.857Z,12.60
2023-04-23T08:20:11.690Z,12.60
2023-04-23T08:22:40.524Z,12.60
2023-04-23T08:25:10.527Z,12.70
2023-04-23T08:27:39.385Z,12.70
2023-04-23T08:30:10.690Z,12.80
2023-04-23T08:32:40.703Z,13.00
2023-04-23T08:35:10.682Z,13.10
2023-04-23T08:37:40.227Z,13.20
2023-04-23T08:40:10.170Z,13.30
2023-04-23T08:42:43.862Z,13.40
2023-04-23T08:45:14.628Z,13.40
2023-04-23T08:47:44.661Z,13.30
2023-04-23T08:50:15.351Z,13.40
2023-04-23T08:52:54.781Z,13.50
2023-04-23T08:55:24.549Z,13.70
2023-04-23T08:57:53.591Z,13.80
2023-04-23T09:00:26.021Z,14.00
2023-04-23T09:02:55.196Z,14.30
2023-04-23T09:05:23.976Z,14.70
2023-04-23T09:07:54.110Z,14.90
2023-04-23T09:10:22.891Z,14.90
2023-04-23T09:12:51.707Z,14.90
2023-04-23T09:15:20.434Z,14.90
2023-04-23T09:17:51.252Z,14.90
2023-04-23T09:20:19.930Z,14.90
2023-04-23T09:22:50.785Z,14.80
2023-04-23T09:25:20.880Z,14.90
2023-04-23T09:27:51.094Z,15.00
2023-04-23T09:30:20.745Z,15.10
2023-04-23T09:32:51.162Z,15.20
2023-04-23T09:35:20.852Z,15.30
2023-04-23T09:37:52.585Z,15.40
2023-04-23T09:40:24.120Z,15.50
2023-04-23T09:42:54.701Z,15.60
2023-04-23T09:45:25.701Z,15.70
2023-04-23T09:47:57.629Z,15.90
2023-04-23T09:50:34.798Z,16.10
2023-04-23T09:53:04.186Z,16.10
2023-04-23T09:55:37.431Z,16.00
2023-04-23T09:58:06.832Z,16.10
2023-04-23T10:00:36.713Z,16.40
2023-04-23T10:03:08.803Z,16.90
2023-04-23T10:05:55.507Z,17.10
2023-04-23T10:08:30.242Z,17.20
2023-04-23T10:11:10.071Z,17.20
2023-04-23T10:13:46.226Z,17.10
2023-04-23T10:16:22.309Z,17.20
2023-04-23T10:18:57.019Z,17.40
2023-04-23T10:21:33.923Z,17.70
2023-04-23T10:24:10.907Z,18.00
2023-04-23T10:26:43.008Z,18.50
2023-04-23T10:29:15.781Z,18.70
2023-04-23T10:31:44.899Z,18.60
2023-04-23T10:34:18.620Z,18.40
2023-04-23T10:36:47.252Z,18.20
2023-04-23T10:39:23.996Z,18.30
2023-04-23T10:41:59.649Z,18.50
2023-04-23T10:44:56.534Z,19.00
2023-04-23T10:47:23.781Z,18.90
2023-04-23T10:49:53.866Z,18.90
2023-04-23T10:52:24.553Z,18.70
2023-04-23T10:54:59.907Z,18.60
2023-04-23T10:57:28.909Z,18.70
2023-04-23T10:59:58.999Z,18.80
2023-04-23T11:02:43.793Z,19.00
2023-04-23T11:05:15.539Z,19.00
2023-04-23T11:07:44.191Z,19.00
2023-04-23T11:10:14.629Z,19.10
2023-04-23T11:12:45.178Z,19.20
2023-04-23T11:15:19.630Z,19.20
2023-04-23T11:18:01.808Z,19.40
2023-04-23T11:20:31.891Z,19.70
2023-04-23T11:23:00.586Z,19.90
2023-04-23T11:25:30.518Z,19.90
2023-04-23T11:27:59.627Z,19.70
2023-04-23T11:30:30.041Z,19.60
2023-04-23T11:33:01.441Z,19.40
2023-04-23T11:35:39.670Z,19.40
2023-04-23T11:38:10.055Z,19.40
2023-04-23T11:40:40.697Z,19.60
2023-04-23T11:43:09.805Z,19.80
2023-04-23T11:45:38.618Z,19.70
2023-04-23T11:48:08.397Z,19.70
2023-04-23T11:50:39.110Z,19.50
2023-04-23T11:53:08.983Z,19.50
2023-04-23T11:55:38.266Z,19.50
2023-04-23T11:58:07.108Z,19.40
2023-04-23T12:00:35.887Z,19.60
2023-04-23T12:03:06.300Z,19.70
2023-04-23T12:05:38.366Z,19.70
2023-04-23T12:08:13.383Z,19.70
2023-04-23T12:10:47.662Z,19.90
2023-04-23T12:13:17.714Z,20.10
2023-04-23T12:15:48.405Z,20.20
2023-04-23T12:18:17.448Z,20.10
2023-04-23T12:20:46.872Z,20.10
2023-04-23T12:23:17.249Z,20.00
2023-04-23T12:25:45.928Z,20.00
2023-04-23T12:28:14.588Z,20.00
2023-04-23T12:30:46.422Z,20.00
2023-04-23T12:33:15.595Z,19.90
2023-04-23T12:35:45.685Z,19.70
2023-04-23T12:38:27.790Z,19.80
2023-04-23T12:40:58.250Z,19.80
2023-04-23T12:43:27.872Z,19.80
2023-04-23T12:45:57.231Z,19.80
2023-04-23T12:48:25.958Z,19.90
2023-04-23T12:50:54.877Z,19.90
2023-04-23T12:53:24.848Z,19.90
2023-04-23T12:55:53.461Z,20.00
2023-04-23T12:58:22.042Z,20.20
2023-04-23T13:00:50.868Z,20.30
2023-04-23T13:03:19.722Z,20.50
2023-04-23T13:05:48.973Z,20.70
2023-04-23T13:08:17.647Z,20.90
2023-04-23T13:10:47.743Z,20.70
2023-04-23T13:13:16.455Z,20.60
2023-04-23T13:15:45.200Z,20.50
2023-04-23T13:18:13.863Z,20.40
2023-04-23T13:20:43.303Z,20.30
2023-04-23T13:23:13.234Z,20.20
2023-04-23T13:25:44.142Z,20.00
2023-04-23T13:28:14.160Z,19.90
2023-04-23T13:30:43.231Z,19.70
2023-04-23T13:33:12.118Z,19.60
2023-04-23T13:35:40.829Z,19.50
2023-04-23T13:38:09.554Z,19.50
2023-04-23T13:40:38.252Z,19.60
2023-04-23T13:43:07.188Z,19.70
2023-04-23T13:45:37.345Z,19.80
2023-04-23T13:48:08.019Z,19.80
2023-04-23T13:50:36.826Z,19.70
2023-04-23T13:53:05.654Z,19.70
2023-04-23T13:55:34.372Z,19.60
2023-04-23T13:58:11.112Z,19.40
2023-04-23T14:00:44.108Z,19.40
2023-04-23T14:03:15.216Z,19.30
2023-04-23T14:05:44.021Z,19.10
2023-04-23T14:08:13.106Z,19.10
2023-04-23T14:10:43.967Z,19.10
2023-04-23T14:13:13.033Z,19.10
2023-04-23T14:15:46.190Z,19.10
2023-04-23T14:18:14.889Z,19.00
2023-04-23T14:20:43.921Z,18.90
2023-04-23T14:23:46.411Z,18.80
2023-04-23T14:26:40.812Z,18.90
2023-04-23T14:29:24.427Z,18.80
2023-04-23T14:31:54.645Z,18.60
2023-04-23T14:34:23.425Z,18.40
2023-04-23T14:36:53.348Z,18.20
2023-04-23T14:39:24.646Z,18.00
2023-04-23T14:41:53.369Z,17.90
2023-04-23T14:44:23.374Z,17.80
2023-04-23T14:46:52.051Z,17.70
2023-04-23T14:49:22.697Z,17.60
2023-04-23T14:51:54.329Z,17.60
2023-04-23T14:54:23.490Z,17.70
2023-04-23T14:56:52.683Z,17.70
2023-04-23T14:59:21.882Z,17.80
2023-04-23T15:01:50.695Z,17.90
2023-04-23T15:04:20.285Z,17.90
2023-04-23T15:06:50.427Z,17.90
2023-04-23T15:09:19.084Z,17.90
2023-04-23T15:11:47.757Z,17.90
2023-04-23T15:14:27.214Z,17.80
2023-04-23T15:16:55.942Z,17.80
2023-04-23T15:19:24.770Z,17.70
2023-04-23T15:21:54.847Z,17.70
2023-04-23T15:24:23.544Z,17.70
2023-04-23T15:26:53.479Z,17.70
2023-04-23T15:29:24.558Z,17.70
2023-04-23T15:31:58.181Z,17.60
2023-04-23T15:34:27.193Z,17.30
2023-04-23T15:36:57.203Z,17.10
2023-04-23T15:39:26.347Z,17.00
2023-04-23T15:41:54.996Z,16.90
2023-04-23T15:44:25.052Z,16.80
2023-04-23T15:46:53.903Z,16.60
2023-04-23T15:49:22.552Z,16.40
2023-04-23T15:51:51.509Z,16.20
2023-04-23T15:54:21.598Z,15.90
2023-04-23T15:56:50.308Z,15.40
2023-04-23T15:59:18.936Z,14.90
2023-04-23T16:01:47.787Z,14.40
2023-04-23T16:04:17.523Z,14.10
2023-04-23T16:06:46.397Z,13.90
2023-04-23T16:09:15.352Z,13.80
2023-04-23T16:11:45.454Z,13.70
2023-04-23T16:14:14.323Z,13.50
2023-04-23T16:16:43.122Z,13.40
2023-04-23T16:19:11.902Z,13.40
2023-04-23T16:21:42.910Z,13.30
2023-04-23T16:24:11.806Z,13.30
2023-04-23T16:26:40.886Z,13.20
2023-04-23T16:29:21.485Z,13.20
2023-04-23T16:31:51.227Z,13.10
2023-04-23T16:34:19.890Z,13.10
2023-04-23T16:36:48.548Z,13.00
2023-04-23T16:39:17.339Z,13.10
2023-04-23T16:41:46.086Z,13.10
2023-04-23T16:44:16.148Z,13.10
2023-04-23T16:46:48.512Z,13.10
2023-04-23T16:49:17.231Z,13.10
2023-04-23T16:51:47.507Z,13.10
2023-04-23T16:54:16.231Z,13.00
2023-04-23T16:56:46.046Z,13.00
2023-04-23T16:59:16.833Z,13.00
2023-04-23T17:01:45.807Z,13.00
2023-04-23T17:04:14.792Z,13.00
2023-04-23T17:06:43.672Z,13.00
2023-04-23T17:09:12.428Z,12.90
2023-04-23T17:11:44.504Z,12.70
2023-04-23T17:14:16.962Z,12.70
2023-04-23T17:16:47.896Z,12.40
2023-04-23T17:19:18.156Z,12.30
2023-04-23T17:21:46.837Z,12.30
2023-04-23T17:24:15.876Z,12.40
2023-04-23T17:26:44.818Z,12.50
2023-04-23T17:29:22.745Z,12.50
2023-04-23T17:31:53.073Z,12.40
2023-04-23T17:34:21.926Z,12.30
2023-04-23T17:36:50.954Z,12.20
2023-04-23T17:39:25.151Z,12.10
2023-04-23T17:41:56.202Z,12.00
2023-04-23T17:44:25.055Z,11.90
2023-04-23T17:46:55.333Z,11.90
2023-04-23T17:49:23.976Z,11.90
2023-04-23T17:51:52.691Z,11.90
2023-04-23T17:54:21.363Z,11.80
2023-04-23T17:56:49.996Z,11.80
2023-04-23T17:59:19.151Z,11.70
2023-04-23T18:01:49.799Z,11.70
2023-04-23T18:04:20.041Z,11.70
2023-04-23T18:06:48.909Z,11.70
2023-04-23T18:09:17.571Z,11.70
2023-04-23T18:11:46.353Z,11.70
2023-04-23T18:14:15.798Z,11.70
2023-04-23T18:16:44.513Z,11.70
2023-04-23T18:19:17.449Z,11.70
2023-04-23T18:21:47.811Z,11.70
2023-04-23T18:24:18.363Z,11.80
2023-04-23T18:26:48.643Z,11.80
2023-04-23T18:29:17.764Z,11.70
2023-04-23T18:31:46.401Z,11.70
2023-04-23T18:34:19.249Z,11.80
2023-04-23T18:36:51.157Z,11.70
2023-04-23T18:39:19.857Z,11.60
2023-04-23T18:41:49.231Z,11.60
2023-04-23T18:44:18.198Z,11.60
2023-04-23T18:46:46.902Z,11.70
2023-04-23T18:49:40.048Z,11.50
2023-04-23T18:52:10.443Z,11.40
2023-04-23T18:54:39.151Z,11.40
2023-04-23T18:57:07.733Z,11.30
2023-04-23T18:59:37.508Z,11.30
2023-04-23T19:02:06.712Z,11.20
2023-04-23T19:04:35.624Z,11.20
2023-04-23T19:07:04.607Z,11.20
2023-04-23T19:09:36.447Z,11.30
2023-04-23T19:12:05.822Z,11.40
2023-04-23T19:14:34.478Z,11.40
2023-04-23T19:17:03.303Z,11.40
2023-04-23T19:19:35.213Z,11.40
2023-04-23T19:22:04.128Z,11.30
2023-04-23T19:24:34.536Z,11.30
2023-04-23T19:27:05.126Z,11.30
2023-04-23T19:29:33.953Z,11.30
2023-04-23T19:32:02.657Z,11.30
2023-04-23T19:34:33.543Z,11.30
2023-04-23T19:37:04.719Z,11.30
2023-04-23T19:39:34.900Z,11.30
2023-04-23T19:42:03.760Z,11.30
2023-04-23T19:44:32.680Z,11.40
2023-04-23T19:47:08.961Z,11.40
2023-04-23T19:49:40.391Z,11.40
2023-04-23T19:52:17.269Z,11.40
2023-04-23T19:54:54.988Z,11.40
2023-04-23T19:57:29.574Z,11.40
2023-04-23T19:59:58.357Z,11.30
2023-04-23T20:02:30.195Z,11.30
2023-04-23T20:05:00.089Z,11.30
2023-04-23T20:07:29.001Z,11.30
2023-04-23T20:10:04.855Z,11.30
2023-04-23T20:12:34.916Z,11.30
2023-04-23T20:15:03.780Z,11.30
2023-04-23T20:17:33.005Z,11.30
2023-04-23T20:20:06.537Z,11.40
2023-04-23T20:22:37.772Z,11.40
2023-04-23T20:25:09.460Z,11.40
2023-04-23T20:27:38.829Z,11.40
2023-04-23T20:30:16.989Z,11.40
2023-04-23T20:32:45.707Z,11.30
2023-04-23T20:35:14.934Z,11.30
2023-04-23T20:37:45.047Z,11.40
2023-04-23T20:40:15.517Z,11.40
2023-04-23T20:42:49.190Z,11.50
2023-04-23T20:45:18.219Z,11.50
2023-04-23T20:47:47.038Z,11.50
2023-04-23T20:50:15.848Z,11.60
2023-04-23T20:52:47.407Z,11.60
2023-04-23T20:55:21.378Z,11.60
2023-04-23T20:57:54.069Z,11.60
2023-04-23T21:00:25.631Z,11.60
2023-04-23T21:03:01.796Z,11.50
2023-04-23T21:05:42.298Z,11.50
2023-04-23T21:08:12.578Z,11.40
2023-04-23T21:10:43.586Z,11.40
2023-04-23T21:13:13.387Z,11.30
2023-04-23T21:15:45.068Z,11.20
2023-04-23T21:18:15.226Z,11.20
2023-04-23T21:20:44.072Z,11.10
2023-04-23T21:23:17.457Z,11.00
2023-04-23T21:25:50.422Z,10.90
2023-04-23T21:28:19.506Z,10.90
2023-04-23T21:30:51.295Z,10.80
2023-04-23T21:33:21.427Z,10.70
2023-04-23T21:35:52.743Z,10.70
2023-04-23T21:38:22.068Z,10.70
2023-04-23T21:40:57.203Z,10.70
2023-04-23T21:43:29.849Z,10.70
2023-04-23T21:46:01.722Z,10.60
2023-04-23T21:48:36.333Z,10.70
2023-04-23T21:51:09.750Z,10.60
2023-04-23T21:53:41.599Z,10.60
2023-04-23T21:56:13.079Z,10.60
2023-04-23T21:58:41.683Z,10.60
2023-04-23T22:01:25.886Z,10.60
2023-04-23T22:03:56.018Z,10.60
2023-04-23T22:06:25.489Z,10.60
2023-04-23T22:08:56.042Z,10.60
2023-04-23T22:11:31.625Z,10.50
2023-04-23T22:14:01.885Z,10.50
2023-04-23T22:16:31.582Z,10.50
2023-04-23T22:19:05.264Z,10.50
2023-04-23T22:21:36.267Z,10.50
2023-04-23T22:24:07.861Z,10.50
2023-04-23T22:26:38.614Z,10.40
2023-04-23T22:29:07.522Z,10.40
2023-04-23T22:31:36.534Z,10.40
2023-04-23T22:34:05.500Z,10.40
2023-04-23T22:36:34.537Z,10.40
2023-04-23T22:39:05.915Z,10.30
2023-04-23T22:41:40.436Z,10.40
2023-04-23T22:44:12.176Z,10.40
2023-04-23T22:46:48.073Z,10.30
2023-04-23T22:52:04.251Z,10.30
2023-04-23T22:54:39.042Z,10.40
2023-04-23T22:57:15.930Z,10.30
2023-04-23T22:59:44.927Z,10.30
2023-04-23T23:02:17.202Z,10.30
2023-04-23T23:04:49.227Z,10.30
2023-04-23T23:07:20.045Z,10.20
2023-04-23T23:12:44.481Z,10.10
2023-04-23T23:15:14.146Z,10.10
2023-04-23T23:17:43.181Z,10.00
2023-04-23T23:20:13.000Z,10.00
2023-04-23T23:22:44.487Z,9.90
2023-04-23T23:25:16.234Z,9.90
2023-04-23T23:27:46.448Z,9.80
2023-04-23T23:30:19.789Z,9.70
2023-04-23T23:32:51.682Z,9.60
2023-04-23T23:35:22.279Z,9.60
2023-04-23T23:37:51.199Z,9.50
2023-04-23T23:40:20.446Z,9.50
2023-04-23T23:42:53.252Z,9.50
2023-04-23T23:45:27.466Z,9.40
2023-04-23T23:47:59.398Z,9.40
2023-04-23T23:50:28.520Z,9.40
2023-04-23T23:52:59.446Z,9.40
2023-04-23T23:55:35.437Z,9.40
2023-04-23T23:58:07.659Z,9.40
